Rougemont, North Carolina
Current Conditions -  °F | °C
As of 5:35 PM on Sunday 23 Nov 2014 (Local Time) from KTDF Reporting Station
Light Rain Light Rain  
Wind Chill: 52°   Ceiling: 1700
Heat Index: 52°   Visibility: 10mi
Dew Point: 52°   Wind: 8mph
Humidity: 100%   Direction: 90°E
Pressure: 29.98"   Gusts: NA
Location:  36.22°N, 78.93°W
Report Text: KTDF 232235Z AUTO 09007KT 10SM -RA SCT009 BKN017 OVC021 11/11 A2998 RMK AO2
Loading
Personal Weather Stations






























Interactive Weather Map New forecast layout! Learn more

10-Day Weather Forecast

Advertisements
Track Severe Weather on mobile